sensor_id;sensor_type;location;lat;lon;timestamp;temperature;humidity
22795;DHT22;11564;50.920;11.612;2022-10-31T00:01:59;8.10;99.90
22795;DHT22;11564;50.920;11.612;2022-10-31T00:04:24;8.10;99.90
22795;DHT22;11564;50.920;11.612;2022-10-31T00:06:50;8.00;99.90
22795;DHT22;11564;50.920;11.612;2022-10-31T00:09:15;8.00;99.90
22795;DHT22;11564;50.920;11.612;2022-10-31T00:11:40;8.00;99.90
22795;DHT22;11564;50.920;11.612;2022-10-31T00:14:06;7.90;99.90
22795;DHT22;11564;50.920;11.612;2022-10-31T00:16:32;7.90;99.90
22795;DHT22;11564;50.920;11.612;2022-10-31T00:18:58;7.90;99.90
22795;DHT22;11564;50.920;11.612;2022-10-31T00:21:24;7.90;99.90
22795;DHT22;11564;50.920;11.612;2022-10-31T00:23:50;7.80;99.90
22795;DHT22;11564;50.920;11.612;2022-10-31T00:26:15;7.80;99.90
22795;DHT22;11564;50.920;11.612;2022-10-31T00:28:41;7.70;99.90
22795;DHT22;11564;50.920;11.612;2022-10-31T00:31:07;7.70;99.90
22795;DHT22;11564;50.920;11.612;2022-10-31T00:33:37;7.70;99.90
22795;DHT22;11564;50.920;11.612;2022-10-31T00:36:03;7.60;99.90
22795;DHT22;11564;50.920;11.612;2022-10-31T00:38:29;7.60;99.90
22795;DHT22;11564;50.920;11.612;2022-10-31T00:40:54;7.60;99.90
22795;DHT22;11564;50.920;11.612;2022-10-31T00:43:20;7.60;99.90
22795;DHT22;11564;50.920;11.612;2022-10-31T00:45:45;7.60;99.90
22795;DHT22;11564;50.920;11.612;2022-10-31T00:48:11;7.60;99.90
22795;DHT22;11564;50.920;11.612;2022-10-31T00:50:37;7.60;99.90
22795;DHT22;11564;50.920;11.612;2022-10-31T00:53:02;7.60;99.90
22795;DHT22;11564;50.920;11.612;2022-10-31T00:55:28;7.50;99.90
22795;DHT22;11564;50.920;11.612;2022-10-31T00:57:53;7.40;99.90
22795;DHT22;11564;50.920;11.612;2022-10-31T01:00:19;7.40;99.90
22795;DHT22;11564;50.920;11.612;2022-10-31T01:02:44;7.40;99.90
22795;DHT22;11564;50.920;11.612;2022-10-31T01:05:10;7.40;99.90
22795;DHT22;11564;50.920;11.612;2022-10-31T01:07:36;7.40;99.90
22795;DHT22;11564;50.920;11.612;2022-10-31T01:10:01;7.30;99.90
22795;DHT22;11564;50.920;11.612;2022-10-31T01:12:27;7.30;99.90
22795;DHT22;11564;50.920;11.612;2022-10-31T01:14:52;7.30;99.90
22795;DHT22;11564;50.920;11.612;2022-10-31T01:17:18;7.20;99.90
22795;DHT22;11564;50.920;11.612;2022-10-31T01:19:44;7.20;99.90
22795;DHT22;11564;50.920;11.612;2022-10-31T01:22:09;7.20;99.90
22795;DHT22;11564;50.920;11.612;2022-10-31T01:24:35;7.20;99.90
22795;DHT22;11564;50.920;11.612;2022-10-31T01:27:01;7.10;99.90
22795;DHT22;11564;50.920;11.612;2022-10-31T01:29:26;7.10;99.90
22795;DHT22;11564;50.920;11.612;2022-10-31T01:31:52;7.10;99.90
22795;DHT22;11564;50.920;11.612;2022-10-31T01:34:17;7.10;99.90
22795;DHT22;11564;50.920;11.612;2022-10-31T01:36:43;7.10;99.90
22795;DHT22;11564;50.920;11.612;2022-10-31T01:39:12;7.10;99.90
22795;DHT22;11564;50.920;11.612;2022-10-31T01:41:39;7.00;99.90
22795;DHT22;11564;50.920;11.612;2022-10-31T01:49:09;7.00;99.90
22795;DHT22;11564;50.920;11.612;2022-10-31T01:51:38;7.00;99.90
22795;DHT22;11564;50.920;11.612;2022-10-31T01:54:07;7.00;99.90
22795;DHT22;11564;50.920;11.612;2022-10-31T01:56:36;7.10;99.90
22795;DHT22;11564;50.920;11.612;2022-10-31T01:59:04;7.00;99.90
22795;DHT22;11564;50.920;11.612;2022-10-31T02:01:32;7.00;99.90
22795;DHT22;11564;50.920;11.612;2022-10-31T02:03:58;6.90;99.90
22795;DHT22;11564;50.920;11.612;2022-10-31T02:06:34;6.90;99.90
22795;DHT22;11564;50.920;11.612;2022-10-31T02:09:02;6.90;99.90
22795;DHT22;11564;50.920;11.612;2022-10-31T02:11:28;6.90;99.90
22795;DHT22;11564;50.920;11.612;2022-10-31T02:13:54;6.90;99.90
22795;DHT22;11564;50.920;11.612;2022-10-31T02:16:20;6.90;99.90
22795;DHT22;11564;50.920;11.612;2022-10-31T02:18:45;6.90;99.90
22795;DHT22;11564;50.920;11.612;2022-10-31T02:21:15;6.80;99.90
22795;DHT22;11564;50.920;11.612;2022-10-31T02:26:32;6.70;99.90
22795;DHT22;11564;50.920;11.612;2022-10-31T02:29:22;6.80;99.90
22795;DHT22;11564;50.920;11.612;2022-10-31T02:34:36;6.80;99.90
22795;DHT22;11564;50.920;11.612;2022-10-31T02:37:10;6.80;99.90
22795;DHT22;11564;50.920;11.612;2022-10-31T02:40:01;6.80;99.90
22795;DHT22;11564;50.920;11.612;2022-10-31T02:42:32;6.70;99.90
22795;DHT22;11564;50.920;11.612;2022-10-31T02:45:00;6.70;99.90
22795;DHT22;11564;50.920;11.612;2022-10-31T02:47:29;6.60;99.90
22795;DHT22;11564;50.920;11.612;2022-10-31T02:50:02;6.60;99.90
22795;DHT22;11564;50.920;11.612;2022-10-31T02:52:30;6.60;99.90
22795;DHT22;11564;50.920;11.612;2022-10-31T02:54:56;6.50;99.90
22795;DHT22;11564;50.920;11.612;2022-10-31T02:57:26;6.50;99.90
22795;DHT22;11564;50.920;11.612;2022-10-31T02:59:58;6.50;99.90
22795;DHT22;11564;50.920;11.612;2022-10-31T03:04:56;6.50;99.90
22795;DHT22;11564;50.920;11.612;2022-10-31T03:12:47;6.40;99.90
22795;DHT22;11564;50.920;11.612;2022-10-31T03:15:28;6.40;99.90
22795;DHT22;11564;50.920;11.612;2022-10-31T03:18:08;6.40;99.90
22795;DHT22;11564;50.920;11.612;2022-10-31T03:20:41;6.30;99.90
22795;DHT22;11564;50.920;11.612;2022-10-31T03:23:09;6.30;99.90
22795;DHT22;11564;50.920;11.612;2022-10-31T03:25:36;6.30;99.90
22795;DHT22;11564;50.920;11.612;2022-10-31T03:28:02;6.40;99.90
22795;DHT22;11564;50.920;11.612;2022-10-31T03:30:29;6.30;99.90
22795;DHT22;11564;50.920;11.612;2022-10-31T03:32:56;6.30;99.90
22795;DHT22;11564;50.920;11.612;2022-10-31T03:35:23;6.30;99.90
22795;DHT22;11564;50.920;11.612;2022-10-31T03:37:49;6.30;99.90
22795;DHT22;11564;50.920;11.612;2022-10-31T03:40:16;6.30;99.90
22795;DHT22;11564;50.920;11.612;2022-10-31T03:42:46;6.20;99.90
22795;DHT22;11564;50.920;11.612;2022-10-31T03:45:20;6.20;99.90
22795;DHT22;11564;50.920;11.612;2022-10-31T03:47:48;6.20;99.90
22795;DHT22;11564;50.920;11.612;2022-10-31T03:50:13;6.20;99.90
22795;DHT22;11564;50.920;11.612;2022-10-31T03:57:45;6.20;99.90
22795;DHT22;11564;50.920;11.612;2022-10-31T04:00:11;6.10;99.90
22795;DHT22;11564;50.920;11.612;2022-10-31T04:02:39;6.10;99.90
22795;DHT22;11564;50.920;11.612;2022-10-31T04:05:05;6.10;99.90
22795;DHT22;11564;50.920;11.612;2022-10-31T04:07:37;6.10;99.90
22795;DHT22;11564;50.920;11.612;2022-10-31T04:10:04;6.10;99.90
22795;DHT22;11564;50.920;11.612;2022-10-31T04:12:32;6.00;99.90
22795;DHT22;11564;50.920;11.612;2022-10-31T04:14:59;6.00;99.90
22795;DHT22;11564;50.920;11.612;2022-10-31T04:17:27;6.00;99.90
22795;DHT22;11564;50.920;11.612;2022-10-31T04:19:54;6.00;99.90
22795;DHT22;11564;50.920;11.612;2022-10-31T04:22:19;6.00;99.90
22795;DHT22;11564;50.920;11.612;2022-10-31T04:24:45;6.00;99.90
22795;DHT22;11564;50.920;11.612;2022-10-31T04:27:10;6.00;99.90
22795;DHT22;11564;50.920;11.612;2022-10-31T04:29:36;5.90;99.90
22795;DHT22;11564;50.920;11.612;2022-10-31T04:32:01;5.90;99.90
22795;DHT22;11564;50.920;11.612;2022-10-31T04:34:27;5.90;99.90
22795;DHT22;11564;50.920;11.612;2022-10-31T04:36:52;5.90;99.90
22795;DHT22;11564;50.920;11.612;2022-10-31T04:39:18;5.90;99.90
22795;DHT22;11564;50.920;11.612;2022-10-31T04:41:43;5.90;99.90
22795;DHT22;11564;50.920;11.612;2022-10-31T04:44:08;6.00;99.90
22795;DHT22;11564;50.920;11.612;2022-10-31T04:46:34;6.00;99.90
22795;DHT22;11564;50.920;11.612;2022-10-31T04:48:59;6.00;99.90
22795;DHT22;11564;50.920;11.612;2022-10-31T04:51:25;6.00;99.90
22795;DHT22;11564;50.920;11.612;2022-10-31T04:53:50;6.00;99.90
22795;DHT22;11564;50.920;11.612;2022-10-31T04:56:16;6.00;99.90
22795;DHT22;11564;50.920;11.612;2022-10-31T04:58:41;5.90;99.90
22795;DHT22;11564;50.920;11.612;2022-10-31T05:01:07;5.90;99.90
22795;DHT22;11564;50.920;11.612;2022-10-31T05:03:32;5.90;99.90
22795;DHT22;11564;50.920;11.612;2022-10-31T05:05:58;5.80;99.90
22795;DHT22;11564;50.920;11.612;2022-10-31T05:08:23;5.80;99.90
22795;DHT22;11564;50.920;11.612;2022-10-31T05:10:48;5.70;99.90
22795;DHT22;11564;50.920;11.612;2022-10-31T05:13:14;5.70;99.90
22795;DHT22;11564;50.920;11.612;2022-10-31T05:15:40;5.70;99.90
22795;DHT22;11564;50.920;11.612;2022-10-31T05:18:06;5.70;99.90
22795;DHT22;11564;50.920;11.612;2022-10-31T05:20:32;5.70;99.90
22795;DHT22;11564;50.920;11.612;2022-10-31T05:22:57;5.70;99.90
22795;DHT22;11564;50.920;11.612;2022-10-31T05:25:24;5.60;99.90
22795;DHT22;11564;50.920;11.612;2022-10-31T05:27:51;5.60;99.90
22795;DHT22;11564;50.920;11.612;2022-10-31T05:30:18;5.60;99.90
22795;DHT22;11564;50.920;11.612;2022-10-31T05:32:46;5.60;99.90
22795;DHT22;11564;50.920;11.612;2022-10-31T05:35:13;5.60;99.90
22795;DHT22;11564;50.920;11.612;2022-10-31T05:37:39;5.60;99.90
22795;DHT22;11564;50.920;11.612;2022-10-31T05:40:05;5.60;99.90
22795;DHT22;11564;50.920;11.612;2022-10-31T05:42:31;5.50;99.90
22795;DHT22;11564;50.920;11.612;2022-10-31T05:44:57;5.60;99.90
22795;DHT22;11564;50.920;11.612;2022-10-31T05:47:22;5.60;99.90
22795;DHT22;11564;50.920;11.612;2022-10-31T05:49:48;5.60;99.90
22795;DHT22;11564;50.920;11.612;2022-10-31T05:52:13;5.60;99.90
22795;DHT22;11564;50.920;11.612;2022-10-31T05:54:39;5.60;99.90
22795;DHT22;11564;50.920;11.612;2022-10-31T05:57:04;5.50;99.90
22795;DHT22;11564;50.920;11.612;2022-10-31T05:59:30;5.50;99.90
22795;DHT22;11564;50.920;11.612;2022-10-31T06:01:55;5.50;99.90
22795;DHT22;11564;50.920;11.612;2022-10-31T06:04:21;5.50;99.90
22795;DHT22;11564;50.920;11.612;2022-10-31T06:06:46;5.40;99.90
22795;DHT22;11564;50.920;11.612;2022-10-31T06:09:12;5.40;99.90
22795;DHT22;11564;50.920;11.612;2022-10-31T06:11:37;5.50;99.90
22795;DHT22;11564;50.920;11.612;2022-10-31T06:14:03;5.50;99.90
22795;DHT22;11564;50.920;11.612;2022-10-31T06:16:29;5.50;99.90
22795;DHT22;11564;50.920;11.612;2022-10-31T06:18:54;5.50;99.90
22795;DHT22;11564;50.920;11.612;2022-10-31T06:21:20;5.50;99.90
22795;DHT22;11564;50.920;11.612;2022-10-31T06:23:45;5.50;99.90
22795;DHT22;11564;50.920;11.612;2022-10-31T06:26:11;5.50;99.90
22795;DHT22;11564;50.920;11.612;2022-10-31T06:28:36;5.50;99.90
22795;DHT22;11564;50.920;11.612;2022-10-31T06:31:02;5.50;99.90
22795;DHT22;11564;50.920;11.612;2022-10-31T06:33:27;5.50;99.90
22795;DHT22;11564;50.920;11.612;2022-10-31T06:35:52;5.50;99.90
22795;DHT22;11564;50.920;11.612;2022-10-31T06:38:18;5.50;99.90
22795;DHT22;11564;50.920;11.612;2022-10-31T06:40:43;5.70;99.90
22795;DHT22;11564;50.920;11.612;2022-10-31T06:43:09;5.70;99.90
22795;DHT22;11564;50.920;11.612;2022-10-31T06:45:36;5.80;99.90
22795;DHT22;11564;50.920;11.612;2022-10-31T06:48:02;5.90;99.90
22795;DHT22;11564;50.920;11.612;2022-10-31T06:50:27;5.80;99.90
22795;DHT22;11564;50.920;11.612;2022-10-31T06:52:54;5.90;99.90
22795;DHT22;11564;50.920;11.612;2022-10-31T06:55:20;6.00;99.90
22795;DHT22;11564;50.920;11.612;2022-10-31T06:57:57;6.00;99.90
22795;DHT22;11564;50.920;11.612;2022-10-31T07:00:23;6.10;99.90
22795;DHT22;11564;50.920;11.612;2022-10-31T07:02:56;6.10;99.90
22795;DHT22;11564;50.920;11.612;2022-10-31T07:05:22;6.20;99.90
22795;DHT22;11564;50.920;11.612;2022-10-31T07:07:49;6.20;99.90
22795;DHT22;11564;50.920;11.612;2022-10-31T07:10:16;6.30;99.90
22795;DHT22;11564;50.920;11.612;2022-10-31T07:12:42;6.40;99.90
22795;DHT22;11564;50.920;11.612;2022-10-31T07:15:07;6.40;99.90
22795;DHT22;11564;50.920;11.612;2022-10-31T07:17:33;6.50;99.90
22795;DHT22;11564;50.920;11.612;2022-10-31T07:19:58;6.60;99.90
22795;DHT22;11564;50.920;11.612;2022-10-31T07:22:24;6.60;99.90
22795;DHT22;11564;50.920;11.612;2022-10-31T07:24:49;6.70;99.90
22795;DHT22;11564;50.920;11.612;2022-10-31T07:27:14;6.70;99.90
22795;DHT22;11564;50.920;11.612;2022-10-31T07:29:40;6.80;99.90
22795;DHT22;11564;50.920;11.612;2022-10-31T07:32:05;6.90;99.90
22795;DHT22;11564;50.920;11.612;2022-10-31T07:34:31;6.90;99.90
22795;DHT22;11564;50.920;11.612;2022-10-31T07:36:56;7.00;99.90
22795;DHT22;11564;50.920;11.612;2022-10-31T07:39:22;6.90;99.90
22795;DHT22;11564;50.920;11.612;2022-10-31T07:41:47;6.90;99.90
22795;DHT22;11564;50.920;11.612;2022-10-31T07:44:13;7.00;99.90
22795;DHT22;11564;50.920;11.612;2022-10-31T07:46:38;7.10;99.90
22795;DHT22;11564;50.920;11.612;2022-10-31T07:49:04;7.20;99.90
22795;DHT22;11564;50.920;11.612;2022-10-31T07:51:29;7.20;99.90
22795;DHT22;11564;50.920;11.612;2022-10-31T07:53:55;7.30;99.90
22795;DHT22;11564;50.920;11.612;2022-10-31T07:56:20;7.30;99.90
22795;DHT22;11564;50.920;11.612;2022-10-31T07:58:45;7.40;99.90
22795;DHT22;11564;50.920;11.612;2022-10-31T08:01:11;7.50;99.90
22795;DHT22;11564;50.920;11.612;2022-10-31T08:03:36;7.70;99.90
22795;DHT22;11564;50.920;11.612;2022-10-31T08:06:02;7.90;99.90
22795;DHT22;11564;50.920;11.612;2022-10-31T08:08:27;8.10;99.90
22795;DHT22;11564;50.920;11.612;2022-10-31T08:10:54;8.30;99.90
22795;DHT22;11564;50.920;11.612;2022-10-31T08:13:20;8.60;99.90
22795;DHT22;11564;50.920;11.612;2022-10-31T08:15:45;8.90;99.90
22795;DHT22;11564;50.920;11.612;2022-10-31T08:18:15;9.10;99.90
22795;DHT22;11564;50.920;11.612;2022-10-31T08:20:41;9.40;99.90
22795;DHT22;11564;50.920;11.612;2022-10-31T08:23:06;9.40;99.90
22795;DHT22;11564;50.920;11.612;2022-10-31T08:25:33;9.70;99.90
22795;DHT22;11564;50.920;11.612;2022-10-31T08:27:59;9.80;99.90
22795;DHT22;11564;50.920;11.612;2022-10-31T08:30:25;9.70;99.90
22795;DHT22;11564;50.920;11.612;2022-10-31T08:33:24;9.80;99.90
22795;DHT22;11564;50.920;11.612;2022-10-31T08:35:43;10.00;99.90
22795;DHT22;11564;50.920;11.612;2022-10-31T08:38:09;10.30;99.90
22795;DHT22;11564;50.920;11.612;2022-10-31T08:40:35;10.50;99.90
22795;DHT22;11564;50.920;11.612;2022-10-31T08:43:01;10.70;99.90
22795;DHT22;11564;50.920;11.612;2022-10-31T08:45:28;10.90;99.90
22795;DHT22;11564;50.920;11.612;2022-10-31T08:47:58;11.10;99.90
22795;DHT22;11564;50.920;11.612;2022-10-31T08:50:24;11.30;99.90
22795;DHT22;11564;50.920;11.612;2022-10-31T08:52:49;11.30;99.90
22795;DHT22;11564;50.920;11.612;2022-10-31T08:55:15;11.30;99.90
22795;DHT22;11564;50.920;11.612;2022-10-31T08:57:41;11.60;99.90
22795;DHT22;11564;50.920;11.612;2022-10-31T09:00:06;11.70;99.90
22795;DHT22;11564;50.920;11.612;2022-10-31T09:02:32;11.90;99.90
22795;DHT22;11564;50.920;11.612;2022-10-31T09:04:58;12.20;99.90
22795;DHT22;11564;50.920;11.612;2022-10-31T09:07:23;12.50;99.90
22795;DHT22;11564;50.920;11.612;2022-10-31T09:09:49;12.50;99.90
22795;DHT22;11564;50.920;11.612;2022-10-31T09:12:14;12.80;99.90
22795;DHT22;11564;50.920;11.612;2022-10-31T09:14:40;13.00;99.90
22795;DHT22;11564;50.920;11.612;2022-10-31T09:17:05;13.30;99.90
22795;DHT22;11564;50.920;11.612;2022-10-31T09:19:30;13.30;99.90
22795;DHT22;11564;50.920;11.612;2022-10-31T09:21:56;13.40;99.90
22795;DHT22;11564;50.920;11.612;2022-10-31T09:24:22;13.50;99.90
22795;DHT22;11564;50.920;11.612;2022-10-31T09:26:47;13.50;99.90
22795;DHT22;11564;50.920;11.612;2022-10-31T09:29:13;13.90;99.90
22795;DHT22;11564;50.920;11.612;2022-10-31T09:31:38;14.00;99.90
22795;DHT22;11564;50.920;11.612;2022-10-31T09:34:04;14.00;99.90
22795;DHT22;11564;50.920;11.612;2022-10-31T09:36:29;14.00;99.90
22795;DHT22;11564;50.920;11.612;2022-10-31T09:38:55;14.10;99.90
22795;DHT22;11564;50.920;11.612;2022-10-31T09:44:02;14.30;99.90
22795;DHT22;11564;50.920;11.612;2022-10-31T09:46:55;14.30;99.90
22795;DHT22;11564;50.920;11.612;2022-10-31T09:49:28;14.60;99.90
22795;DHT22;11564;50.920;11.612;2022-10-31T09:51:58;14.90;99.90
22795;DHT22;11564;50.920;11.612;2022-10-31T09:54:32;15.00;99.90
22795;DHT22;11564;50.920;11.612;2022-10-31T09:56:58;15.10;99.90
22795;DHT22;11564;50.920;11.612;2022-10-31T09:59:35;15.00;99.90
22795;DHT22;11564;50.920;11.612;2022-10-31T10:07:23;14.90;99.90
22795;DHT22;11564;50.920;11.612;2022-10-31T10:09:50;15.10;99.90
22795;DHT22;11564;50.920;11.612;2022-10-31T10:12:18;15.20;99.90
22795;DHT22;11564;50.920;11.612;2022-10-31T10:25:12;16.20;99.90
22795;DHT22;11564;50.920;11.612;2022-10-31T10:30:20;16.20;99.90
22795;DHT22;11564;50.920;11.612;2022-10-31T10:33:08;16.40;99.90
22795;DHT22;11564;50.920;11.612;2022-10-31T10:35:36;16.40;99.90
22795;DHT22;11564;50.920;11.612;2022-10-31T10:38:10;16.40;99.90
22795;DHT22;11564;50.920;11.612;2022-10-31T10:40:37;16.50;99.90
22795;DHT22;11564;50.920;11.612;2022-10-31T10:45:53;16.30;99.90
22795;DHT22;11564;50.920;11.612;2022-10-31T10:48:42;16.40;99.90
22795;DHT22;11564;50.920;11.612;2022-10-31T10:51:10;16.70;99.90
22795;DHT22;11564;50.920;11.612;2022-10-31T10:54:02;17.00;99.90
22795;DHT22;11564;50.920;11.612;2022-10-31T10:59:18;16.80;99.90
22795;DHT22;11564;50.920;11.612;2022-10-31T11:01:44;17.00;99.90
22795;DHT22;11564;50.920;11.612;2022-10-31T11:04:21;17.20;99.90
22795;DHT22;11564;50.920;11.612;2022-10-31T11:06:58;17.30;99.90
22795;DHT22;11564;50.920;11.612;2022-10-31T11:09:23;17.30;99.80
22795;DHT22;11564;50.920;11.612;2022-10-31T11:11:49;17.40;99.90
22795;DHT22;11564;50.920;11.612;2022-10-31T11:14:15;17.90;98.60
22795;DHT22;11564;50.920;11.612;2022-10-31T11:16:48;17.90;97.80
22795;DHT22;11564;50.920;11.612;2022-10-31T11:19:22;18.10;98.30
22795;DHT22;11564;50.920;11.612;2022-10-31T11:21:51;18.30;97.70
22795;DHT22;11564;50.920;11.612;2022-10-31T11:24:21;18.50;96.60
22795;DHT22;11564;50.920;11.612;2022-10-31T11:26:48;18.70;96.70
22795;DHT22;11564;50.920;11.612;2022-10-31T11:31:43;18.70;96.00
22795;DHT22;11564;50.920;11.612;2022-10-31T11:34:14;19.10;95.00
22795;DHT22;11564;50.920;11.612;2022-10-31T11:36:42;19.40;94.90
22795;DHT22;11564;50.920;11.612;2022-10-31T11:39:14;19.60;94.00
22795;DHT22;11564;50.920;11.612;2022-10-31T11:41:40;19.30;93.70
22795;DHT22;11564;50.920;11.612;2022-10-31T11:46:43;20.00;93.60
22795;DHT22;11564;50.920;11.612;2022-10-31T11:49:52;20.40;93.20
22795;DHT22;11564;50.920;11.612;2022-10-31T11:52:00;20.90;92.80
22795;DHT22;11564;50.920;11.612;2022-10-31T11:54:28;20.80;92.40
22795;DHT22;11564;50.920;11.612;2022-10-31T11:56:55;21.00;92.40
22795;DHT22;11564;50.920;11.612;2022-10-31T11:59:22;20.90;91.10
22795;DHT22;11564;50.920;11.612;2022-10-31T12:01:49;21.30;90.80
22795;DHT22;11564;50.920;11.612;2022-10-31T12:04:15;21.60;91.10
22795;DHT22;11564;50.920;11.612;2022-10-31T12:06:45;22.20;90.20
22795;DHT22;11564;50.920;11.612;2022-10-31T12:11:47;22.30;90.30
22795;DHT22;11564;50.920;11.612;2022-10-31T12:14:19;22.20;87.20
22795;DHT22;11564;50.920;11.612;2022-10-31T12:21:59;23.80;85.90
22795;DHT22;11564;50.920;11.612;2022-10-31T12:25:11;24.30;83.40
22795;DHT22;11564;50.920;11.612;2022-10-31T12:30:02;24.80;79.20
22795;DHT22;11564;50.920;11.612;2022-10-31T12:35:13;23.90;81.10
22795;DHT22;11564;50.920;11.612;2022-10-31T12:37:49;23.40;82.20
22795;DHT22;11564;50.920;11.612;2022-10-31T12:47:46;25.00;79.20
22795;DHT22;11564;50.920;11.612;2022-10-31T12:50:22;24.80;78.40
22795;DHT22;11564;50.920;11.612;2022-10-31T12:57:47;23.00;82.40
22795;DHT22;11564;50.920;11.612;2022-10-31T13:00:18;22.70;83.50
22795;DHT22;11564;50.920;11.612;2022-10-31T13:02:51;22.60;84.80
22795;DHT22;11564;50.920;11.612;2022-10-31T13:07:49;22.60;86.30
22795;DHT22;11564;50.920;11.612;2022-10-31T13:10:22;22.50;85.40
22795;DHT22;11564;50.920;11.612;2022-10-31T13:12:48;23.20;85.50
22795;DHT22;11564;50.920;11.612;2022-10-31T13:15:16;23.10;84.40
22795;DHT22;11564;50.920;11.612;2022-10-31T13:17:44;23.80;84.10
22795;DHT22;11564;50.920;11.612;2022-10-31T13:22:36;23.50;83.70
22795;DHT22;11564;50.920;11.612;2022-10-31T13:27:37;23.50;82.60
22795;DHT22;11564;50.920;11.612;2022-10-31T13:32:47;23.10;84.00
22795;DHT22;11564;50.920;11.612;2022-10-31T13:38:03;22.90;84.60
22795;DHT22;11564;50.920;11.612;2022-10-31T13:43:05;22.30;88.70
22795;DHT22;11564;50.920;11.612;2022-10-31T13:45:31;22.20;89.60
22795;DHT22;11564;50.920;11.612;2022-10-31T13:47:58;22.10;90.50
22795;DHT22;11564;50.920;11.612;2022-10-31T13:50:25;22.00;89.10
22795;DHT22;11564;50.920;11.612;2022-10-31T13:52:51;21.90;90.20
22795;DHT22;11564;50.920;11.612;2022-10-31T13:55:37;21.90;91.20
22795;DHT22;11564;50.920;11.612;2022-10-31T13:58:03;21.80;91.10
22795;DHT22;11564;50.920;11.612;2022-10-31T14:00:29;21.60;91.70
22795;DHT22;11564;50.920;11.612;2022-10-31T14:03:00;21.50;91.60
22795;DHT22;11564;50.920;11.612;2022-10-31T14:05:27;21.30;91.80
22795;DHT22;11564;50.920;11.612;2022-10-31T14:07:53;21.10;91.70
22795;DHT22;11564;50.920;11.612;2022-10-31T14:12:51;21.10;92.00
22795;DHT22;11564;50.920;11.612;2022-10-31T14:15:19;20.80;92.10
22795;DHT22;11564;50.920;11.612;2022-10-31T14:17:49;20.80;92.20
22795;DHT22;11564;50.920;11.612;2022-10-31T14:22:41;20.50;92.70
22795;DHT22;11564;50.920;11.612;2022-10-31T14:25:26;20.20;93.30
22795;DHT22;11564;50.920;11.612;2022-10-31T14:27:51;20.00;93.50
22795;DHT22;11564;50.920;11.612;2022-10-31T14:30:19;20.00;94.20
22795;DHT22;11564;50.920;11.612;2022-10-31T14:32:47;19.80;94.50
22795;DHT22;11564;50.920;11.612;2022-10-31T14:35:15;19.60;94.90
22795;DHT22;11564;50.920;11.612;2022-10-31T14:50:51;18.50;97.10
22795;DHT22;11564;50.920;11.612;2022-10-31T14:53:23;18.30;97.60
22795;DHT22;11564;50.920;11.612;2022-10-31T14:55:52;18.10;97.80
22795;DHT22;11564;50.920;11.612;2022-10-31T14:58:19;17.90;98.20
22795;DHT22;11564;50.920;11.612;2022-10-31T15:00:46;17.80;98.50
22795;DHT22;11564;50.920;11.612;2022-10-31T15:03:14;17.50;98.70
22795;DHT22;11564;50.920;11.612;2022-10-31T15:05:41;17.30;99.00
22795;DHT22;11564;50.920;11.612;2022-10-31T15:08:44;17.20;99.10
22795;DHT22;11564;50.920;11.612;2022-10-31T15:11:02;17.00;99.70
22795;DHT22;11564;50.920;11.612;2022-10-31T15:13:28;16.90;99.70
22795;DHT22;11564;50.920;11.612;2022-10-31T15:15:54;16.70;99.80
22795;DHT22;11564;50.920;11.612;2022-10-31T15:18:21;16.40;99.90
22795;DHT22;11564;50.920;11.612;2022-10-31T15:20:48;16.30;99.90
22795;DHT22;11564;50.920;11.612;2022-10-31T15:23:21;16.10;99.90
22795;DHT22;11564;50.920;11.612;2022-10-31T15:25:47;16.00;99.90
22795;DHT22;11564;50.920;11.612;2022-10-31T15:28:13;15.80;99.90
22795;DHT22;11564;50.920;11.612;2022-10-31T15:30:39;15.60;99.90
22795;DHT22;11564;50.920;11.612;2022-10-31T15:33:23;15.50;99.90
22795;DHT22;11564;50.920;11.612;2022-10-31T15:35:56;15.40;99.90
22795;DHT22;11564;50.920;11.612;2022-10-31T15:38:23;15.20;99.90
22795;DHT22;11564;50.920;11.612;2022-10-31T15:40:52;15.10;99.90
22795;DHT22;11564;50.920;11.612;2022-10-31T15:43:18;15.00;99.90
22795;DHT22;11564;50.920;11.612;2022-10-31T15:45:43;14.90;99.90
22795;DHT22;11564;50.920;11.612;2022-10-31T15:48:16;14.80;99.90
22795;DHT22;11564;50.920;11.612;2022-10-31T15:50:47;14.60;99.90
22795;DHT22;11564;50.920;11.612;2022-10-31T15:53:23;14.50;99.90
22795;DHT22;11564;50.920;11.612;2022-10-31T15:55:56;14.40;99.90
22795;DHT22;11564;50.920;11.612;2022-10-31T15:58:21;14.20;99.90
22795;DHT22;11564;50.920;11.612;2022-10-31T16:00:57;14.10;99.90
22795;DHT22;11564;50.920;11.612;2022-10-31T16:03:25;14.00;99.90
22795;DHT22;11564;50.920;11.612;2022-10-31T16:05:52;13.90;99.90
22795;DHT22;11564;50.920;11.612;2022-10-31T16:08:22;13.90;99.90
22795;DHT22;11564;50.920;11.612;2022-10-31T16:10:49;13.70;99.90
22795;DHT22;11564;50.920;11.612;2022-10-31T16:13:14;13.60;99.90
22795;DHT22;11564;50.920;11.612;2022-10-31T16:15:47;13.60;99.90
22795;DHT22;11564;50.920;11.612;2022-10-31T16:18:13;13.50;99.90
22795;DHT22;11564;50.920;11.612;2022-10-31T16:20:38;13.40;99.90
22795;DHT22;11564;50.920;11.612;2022-10-31T16:23:04;13.30;99.90
22795;DHT22;11564;50.920;11.612;2022-10-31T16:25:34;13.30;99.90
22795;DHT22;11564;50.920;11.612;2022-10-31T16:28:02;13.20;99.90
22795;DHT22;11564;50.920;11.612;2022-10-31T16:30:30;13.10;99.90
22795;DHT22;11564;50.920;11.612;2022-10-31T16:32:57;13.10;99.90
22795;DHT22;11564;50.920;11.612;2022-10-31T16:35:28;13.10;99.90
22795;DHT22;11564;50.920;11.612;2022-10-31T16:37:56;13.00;99.90
22795;DHT22;11564;50.920;11.612;2022-10-31T16:40:22;12.90;99.90
22795;DHT22;11564;50.920;11.612;2022-10-31T16:42:47;12.90;99.90
22795;DHT22;11564;50.920;11.612;2022-10-31T16:45:15;12.80;99.90
22795;DHT22;11564;50.920;11.612;2022-10-31T16:47:41;12.80;99.90
22795;DHT22;11564;50.920;11.612;2022-10-31T16:50:12;12.70;99.90
22795;DHT22;11564;50.920;11.612;2022-10-31T16:52:37;12.70;99.90
22795;DHT22;11564;50.920;11.612;2022-10-31T16:55:03;12.60;99.90
22795;DHT22;11564;50.920;11.612;2022-10-31T16:57:29;12.60;99.90
22795;DHT22;11564;50.920;11.612;2022-10-31T16:59:55;12.50;99.90
22795;DHT22;11564;50.920;11.612;2022-10-31T17:02:22;12.50;99.90
22795;DHT22;11564;50.920;11.612;2022-10-31T17:04:47;12.40;99.90
22795;DHT22;11564;50.920;11.612;2022-10-31T17:07:13;12.40;99.90
22795;DHT22;11564;50.920;11.612;2022-10-31T17:09:38;12.30;99.90
22795;DHT22;11564;50.920;11.612;2022-10-31T17:12:04;12.30;99.90
22795;DHT22;11564;50.920;11.612;2022-10-31T17:14:30;12.30;99.90
22795;DHT22;11564;50.920;11.612;2022-10-31T17:16:56;12.30;99.90
22795;DHT22;11564;50.920;11.612;2022-10-31T17:19:21;12.20;99.90
22795;DHT22;11564;50.920;11.612;2022-10-31T17:21:47;12.20;99.90
22795;DHT22;11564;50.920;11.612;2022-10-31T17:24:13;12.10;99.90